createdAt,value
2023-04-24T00:00:18.107Z,51.90
2023-04-24T00:01:21.236Z,57.00
2023-04-24T00:02:24.482Z,59.09
2023-04-24T00:03:28.470Z,56.10
2023-04-24T00:04:32.240Z,61.20
2023-04-24T00:05:34.663Z,56.60
2023-04-24T00:06:39.697Z,59.40
2023-04-24T00:07:43.009Z,52.10
2023-04-24T00:08:45.333Z,57.50
2023-04-24T00:09:48.531Z,55.40
2023-04-24T00:10:53.041Z,56.90
2023-04-24T00:11:56.538Z,54.60
2023-04-24T00:12:59.172Z,59.00
2023-04-24T00:14:01.817Z,57.20
2023-04-24T00:15:05.399Z,55.70
2023-04-24T00:16:08.077Z,57.40
2023-04-24T00:17:11.309Z,52.80
2023-04-24T00:18:13.796Z,49.20
2023-04-24T00:19:16.375Z,59.20
2023-04-24T00:20:19.390Z,62.70
2023-04-24T00:21:22.466Z,55.10
2023-04-24T00:22:25.788Z,46.10
2023-04-24T00:23:28.548Z,47.10
2023-04-24T00:24:31.176Z,37.00
2023-04-24T00:25:34.595Z,45.82
2023-04-24T00:26:37.105Z,49.50
2023-04-24T00:27:39.341Z,45.40
2023-04-24T00:28:41.966Z,48.20
2023-04-24T00:29:45.443Z,44.40
2023-04-24T00:30:48.083Z,48.60
2023-04-24T00:31:50.753Z,49.20
2023-04-24T00:32:53.301Z,46.45
2023-04-24T00:33:55.935Z,48.30
2023-04-24T00:34:58.247Z,36.10
2023-04-24T00:36:01.109Z,29.60
2023-04-24T00:37:03.427Z,30.90
2023-04-24T00:38:05.703Z,41.50
2023-04-24T00:39:10.714Z,34.20
2023-04-24T00:40:13.614Z,29.90
2023-04-24T00:41:15.925Z,38.60
2023-04-24T00:42:18.174Z,46.70
2023-04-24T00:43:21.126Z,46.70
2023-04-24T00:44:24.917Z,37.82
2023-04-24T00:45:27.416Z,52.70
2023-04-24T00:46:30.083Z,55.30
2023-04-24T00:47:33.847Z,51.80
2023-04-24T00:48:36.613Z,43.70
2023-04-24T00:49:38.852Z,45.10
2023-04-24T00:50:41.451Z,54.80
2023-04-24T00:51:45.483Z,44.90
2023-04-24T00:52:48.870Z,49.50
2023-04-24T00:53:52.415Z,37.36
2023-04-24T00:54:55.489Z,26.90
2023-04-24T00:55:58.598Z,24.20
2023-04-24T00:57:02.959Z,23.70
2023-04-24T00:58:05.730Z,27.90
2023-04-24T00:59:08.395Z,33.10
2023-04-24T01:00:14.100Z,30.50
2023-04-24T01:01:17.628Z,29.90
2023-04-24T01:02:21.569Z,29.10
2023-04-24T01:03:26.993Z,32.00
2023-04-24T01:04:29.716Z,28.20
2023-04-24T01:05:33.844Z,22.50
2023-04-24T01:06:42.947Z,26.60
2023-04-24T01:07:48.620Z,38.20
2023-04-24T01:08:50.896Z,32.50
2023-04-24T01:09:53.402Z,27.80
2023-04-24T01:10:57.441Z,30.00
2023-04-24T01:12:01.515Z,20.90
2023-04-24T01:13:04.933Z,25.50
2023-04-24T01:14:07.504Z,25.70
2023-04-24T01:15:10.716Z,25.80
2023-04-24T01:16:14.608Z,29.90
2023-04-24T01:17:17.137Z,30.10
2023-04-24T01:18:19.572Z,39.90
2023-04-24T01:19:21.843Z,33.50
2023-04-24T01:20:26.672Z,32.10
2023-04-24T01:21:30.964Z,28.80
2023-04-24T01:22:36.127Z,22.70
2023-04-24T01:23:39.286Z,24.20
2023-04-24T01:24:43.056Z,24.40
2023-04-24T01:25:48.706Z,25.70
2023-04-24T01:26:51.129Z,22.00
2023-04-24T01:27:55.277Z,18.30
2023-04-24T01:28:58.265Z,22.00
2023-04-24T01:30:00.931Z,22.90
2023-04-24T01:31:05.388Z,21.09
2023-04-24T01:32:07.770Z,21.20
2023-04-24T01:33:10.794Z,21.30
2023-04-24T01:34:15.024Z,21.70
2023-04-24T01:35:17.315Z,19.20
2023-04-24T01:36:20.512Z,18.50
2023-04-24T01:37:22.897Z,22.20
2023-04-24T01:38:25.405Z,20.30
2023-04-24T01:39:29.000Z,21.20
2023-04-24T01:40:31.692Z,30.40
2023-04-24T01:41:35.438Z,27.30
2023-04-24T01:42:37.898Z,23.60
2023-04-24T01:43:40.744Z,20.40
2023-04-24T01:44:43.531Z,17.36
2023-04-24T01:45:45.781Z,14.70
2023-04-24T01:46:48.238Z,23.20
2023-04-24T01:47:51.424Z,19.80
2023-04-24T01:48:54.701Z,21.90
2023-04-24T01:49:57.287Z,22.10
2023-04-24T01:51:00.233Z,21.40
2023-04-24T01:52:02.640Z,20.55
2023-04-24T01:53:08.179Z,26.00
2023-04-24T01:54:12.800Z,24.00
2023-04-24T01:55:15.222Z,20.90
2023-04-24T01:56:18.059Z,17.70
2023-04-24T01:57:20.541Z,18.36
2023-04-24T01:58:23.480Z,20.00
2023-04-24T01:59:27.916Z,17.20
2023-04-24T02:00:31.040Z,18.90
2023-04-24T02:01:36.998Z,20.40
2023-04-24T02:02:41.521Z,20.30
2023-04-24T02:03:44.156Z,19.10
2023-04-24T02:04:46.634Z,20.10
2023-04-24T02:05:49.070Z,15.90
2023-04-24T02:06:51.611Z,15.20
2023-04-24T02:07:53.717Z,16.30
2023-04-24T02:08:55.873Z,19.90
2023-04-24T02:09:59.058Z,18.80
2023-04-24T02:11:02.780Z,19.10
2023-04-24T02:12:06.936Z,18.70
2023-04-24T02:13:09.610Z,20.40
2023-04-24T02:14:12.263Z,19.90
2023-04-24T02:15:16.008Z,20.30
2023-04-24T02:16:19.850Z,17.50
2023-04-24T02:17:23.057Z,20.50
2023-04-24T02:18:25.630Z,22.30
2023-04-24T02:19:27.938Z,18.30
2023-04-24T02:20:30.777Z,21.40
2023-04-24T02:21:33.542Z,21.50
2023-04-24T02:22:35.664Z,16.30
2023-04-24T02:23:37.786Z,27.00
2023-04-24T02:24:41.072Z,20.09
2023-04-24T02:25:43.303Z,19.00
2023-04-24T02:26:45.618Z,24.00
2023-04-24T02:27:47.727Z,24.40
2023-04-24T02:28:50.156Z,23.40
2023-04-24T02:29:52.451Z,19.00
2023-04-24T02:30:54.946Z,20.50
2023-04-24T02:31:58.358Z,17.60
2023-04-24T02:33:00.717Z,18.30
2023-04-24T02:34:03.531Z,19.10
2023-04-24T02:35:06.747Z,14.80
2023-04-24T02:36:09.409Z,13.30
2023-04-24T02:37:12.229Z,16.30
2023-04-24T02:38:14.400Z,12.55
2023-04-24T02:39:19.213Z,13.90
2023-04-24T02:40:21.404Z,14.00
2023-04-24T02:41:23.504Z,12.90
2023-04-24T02:42:25.757Z,11.70
2023-04-24T02:43:28.906Z,12.70
2023-04-24T02:44:31.415Z,13.40
2023-04-24T02:45:35.708Z,14.90
2023-04-24T02:46:38.532Z,11.10
2023-04-24T02:47:40.867Z,8.50
2023-04-24T02:48:43.148Z,11.70
2023-04-24T02:49:45.515Z,4.70
2023-04-24T02:50:48.251Z,8.20
2023-04-24T02:51:50.706Z,13.30
2023-04-24T02:52:53.244Z,9.20
2023-04-24T02:53:56.157Z,8.90
2023-04-24T02:54:59.679Z,13.90
2023-04-24T02:56:03.167Z,13.10
2023-04-24T02:57:05.664Z,11.70
2023-04-24T02:58:08.406Z,15.80
2023-04-24T02:59:10.980Z,17.20
2023-04-24T03:00:14.686Z,16.45
2023-04-24T03:01:18.328Z,19.60
2023-04-24T03:02:21.263Z,18.70
2023-04-24T03:03:24.400Z,18.55
2023-04-24T03:04:27.006Z,15.40
2023-04-24T03:05:29.253Z,17.00
2023-04-24T03:06:33.165Z,14.60
2023-04-24T03:07:35.601Z,18.50
2023-04-24T03:08:37.962Z,18.80
2023-04-24T03:09:40.886Z,17.90
2023-04-24T03:10:46.267Z,17.80
2023-04-24T03:11:50.836Z,16.70
2023-04-24T03:12:53.961Z,17.40
2023-04-24T03:13:56.260Z,26.10
2023-04-24T03:14:58.404Z,39.50
2023-04-24T03:16:00.787Z,29.90
2023-04-24T03:17:03.713Z,31.10
2023-04-24T03:18:05.850Z,26.60
2023-04-24T03:19:08.752Z,17.50
2023-04-24T03:20:13.180Z,28.00
2023-04-24T03:21:17.037Z,25.27
2023-04-24T03:22:20.333Z,25.40
2023-04-24T03:23:23.277Z,23.30
2023-04-24T03:24:27.457Z,21.50
2023-04-24T03:25:30.541Z,21.70
2023-04-24T03:26:34.457Z,21.30
2023-04-24T03:27:39.611Z,28.00
2023-04-24T03:28:43.674Z,23.80
2023-04-24T03:29:45.913Z,24.70
2023-04-24T03:30:48.593Z,22.50
2023-04-24T03:31:51.465Z,31.20
2023-04-24T03:32:55.495Z,27.00
2023-04-24T03:33:59.810Z,25.60
2023-04-24T03:35:03.051Z,31.40
2023-04-24T03:36:06.069Z,25.80
2023-04-24T03:37:10.079Z,25.20
2023-04-24T03:38:14.005Z,28.10
2023-04-24T03:39:33.462Z,24.10
2023-04-24T03:40:36.209Z,26.10
2023-04-24T03:41:40.590Z,27.10
2023-04-24T03:42:44.974Z,25.50
2023-04-24T03:43:47.382Z,26.70
2023-04-24T03:44:51.085Z,29.50
2023-04-24T03:45:54.909Z,32.10
2023-04-24T03:46:59.007Z,32.50
2023-04-24T03:48:02.360Z,34.10
2023-04-24T03:49:05.827Z,41.90
2023-04-24T03:50:12.956Z,49.60
2023-04-24T03:51:15.294Z,46.00
2023-04-24T03:52:19.682Z,47.90
2023-04-24T03:53:22.218Z,51.00
2023-04-24T03:54:24.744Z,46.50
2023-04-24T03:55:28.100Z,56.18
2023-04-24T03:56:30.386Z,53.18
2023-04-24T03:57:32.848Z,55.40
2023-04-24T03:58:40.711Z,46.30
2023-04-24T03:59:43.326Z,47.90
2023-04-24T04:00:48.514Z,45.60
2023-04-24T04:01:55.527Z,41.50
2023-04-24T04:02:58.476Z,47.20
2023-04-24T04:04:01.830Z,50.90
2023-04-24T04:05:05.636Z,60.10
2023-04-24T04:06:08.310Z,57.00
2023-04-24T04:07:12.696Z,52.50
2023-04-24T04:08:15.579Z,55.00
2023-04-24T04:09:17.839Z,48.20
2023-04-24T04:10:21.811Z,56.40
2023-04-24T04:11:24.827Z,52.20
2023-04-24T04:12:27.235Z,51.73
2023-04-24T04:13:29.969Z,48.30
2023-04-24T04:14:33.168Z,55.55
2023-04-24T04:15:36.174Z,48.91
2023-04-24T04:16:39.104Z,54.80
2023-04-24T04:17:41.926Z,53.73
2023-04-24T04:18:45.506Z,57.00
2023-04-24T04:19:48.272Z,74.50
2023-04-24T04:20:50.910Z,64.09
2023-04-24T04:21:55.322Z,61.00
2023-04-24T04:22:59.423Z,62.70
2023-04-24T04:24:06.001Z,56.00
2023-04-24T04:25:12.336Z,57.30
2023-04-24T04:26:15.164Z,57.20
2023-04-24T04:27:35.750Z,55.30
2023-04-24T04:28:40.074Z,46.10
2023-04-24T04:29:42.643Z,38.30
2023-04-24T04:30:47.528Z,37.80
2023-04-24T04:31:50.118Z,29.00
2023-04-24T04:32:52.966Z,32.30
2023-04-24T04:33:56.324Z,32.27
2023-04-24T04:34:59.082Z,35.20
2023-04-24T04:36:03.480Z,33.50
2023-04-24T04:37:06.725Z,27.30
2023-04-24T04:38:17.860Z,35.40
2023-04-24T04:39:22.048Z,31.40
2023-04-24T04:40:28.347Z,23.10
2023-04-24T04:41:32.850Z,27.80
2023-04-24T04:42:36.049Z,27.64
2023-04-24T04:43:40.711Z,22.45
2023-04-24T04:44:45.242Z,23.10
2023-04-24T04:45:50.183Z,27.80
2023-04-24T04:46:57.599Z,24.90
2023-04-24T04:48:02.802Z,23.30
2023-04-24T04:49:06.711Z,28.70
2023-04-24T04:50:10.941Z,22.70
2023-04-24T04:51:13.457Z,26.30
2023-04-24T04:52:17.724Z,22.60
2023-04-24T04:53:20.350Z,17.20
2023-04-24T04:54:22.775Z,18.20
2023-04-24T04:55:24.919Z,14.90
2023-04-24T04:56:35.283Z,15.30
2023-04-24T04:57:39.895Z,14.10
2023-04-24T04:58:43.407Z,17.80
2023-04-24T04:59:47.679Z,16.90
2023-04-24T05:00:53.699Z,18.40
2023-04-24T05:02:03.894Z,18.70
2023-04-24T05:03:20.082Z,15.50
2023-04-24T05:04:11.406Z,20.20
2023-04-24T05:05:14.311Z,23.50
2023-04-24T05:06:17.432Z,21.27
2023-04-24T05:07:20.082Z,27.64
2023-04-24T05:08:27.611Z,27.70
2023-04-24T05:09:29.865Z,27.60
2023-04-24T05:10:34.894Z,27.20
2023-04-24T05:11:37.237Z,22.70
2023-04-24T05:12:39.362Z,28.50
2023-04-24T05:13:42.564Z,31.90
2023-04-24T05:14:46.719Z,29.10
2023-04-24T05:15:50.185Z,31.90
2023-04-24T05:16:53.940Z,32.00
2023-04-24T05:17:59.374Z,34.10
2023-04-24T05:19:02.193Z,27.30
2023-04-24T05:20:09.353Z,32.50
2023-04-24T05:21:11.668Z,34.20
2023-04-24T05:22:15.527Z,34.60
2023-04-24T05:23:20.044Z,22.20
2023-04-24T05:24:22.916Z,34.30
2023-04-24T05:25:35.508Z,30.00
2023-04-24T05:26:39.562Z,32.60
2023-04-24T05:27:44.612Z,32.80
2023-04-24T05:28:48.683Z,28.40
2023-04-24T05:29:51.611Z,30.50
2023-04-24T05:30:56.205Z,23.64
2023-04-24T05:32:01.086Z,30.00
2023-04-24T05:33:04.598Z,33.10
2023-04-24T05:34:09.902Z,34.60
2023-04-24T05:35:14.399Z,35.00
2023-04-24T05:36:17.416Z,27.80
2023-04-24T05:37:20.403Z,30.20
2023-04-24T05:38:23.489Z,29.30
2023-04-24T05:39:25.856Z,30.00
2023-04-24T05:40:29.633Z,30.50
2023-04-24T05:41:32.015Z,28.80
2023-04-24T05:42:34.357Z,32.30
2023-04-24T05:43:36.757Z,22.80
2023-04-24T05:44:38.895Z,18.70
2023-04-24T05:45:41.116Z,23.20
2023-04-24T05:46:44.585Z,15.60
2023-04-24T05:47:48.402Z,22.00
2023-04-24T05:48:50.704Z,22.00
2023-04-24T05:49:53.820Z,29.60
2023-04-24T05:50:56.387Z,21.30
2023-04-24T05:51:59.507Z,22.20
2023-04-24T05:53:07.480Z,20.20
2023-04-24T05:54:12.516Z,26.20
2023-04-24T05:55:18.096Z,22.40
2023-04-24T05:56:21.596Z,20.90
2023-04-24T05:57:26.203Z,16.70
2023-04-24T05:58:30.398Z,21.40
2023-04-24T05:59:32.869Z,16.60
2023-04-24T06:00:36.182Z,19.10
2023-04-24T06:01:41.073Z,16.00
2023-04-24T06:02:48.398Z,16.70
2023-04-24T06:03:52.084Z,16.70
2023-04-24T06:04:54.641Z,13.10
2023-04-24T06:05:57.324Z,16.20
2023-04-24T06:07:00.439Z,16.10
2023-04-24T06:08:03.260Z,11.30
2023-04-24T06:09:08.123Z,12.60
2023-04-24T06:10:11.082Z,14.70
2023-04-24T06:11:15.519Z,15.20
2023-04-24T06:12:18.081Z,16.90
2023-04-24T06:13:25.352Z,12.80
2023-04-24T06:14:29.521Z,14.10
2023-04-24T06:15:52.105Z,11.30
2023-04-24T06:16:56.296Z,11.70
2023-04-24T06:18:00.644Z,10.10
2023-04-24T06:19:03.582Z,11.50
2023-04-24T06:20:08.456Z,12.50
2023-04-24T06:21:10.915Z,11.00
2023-04-24T06:22:13.664Z,9.70
2023-04-24T06:23:17.289Z,14.50
2023-04-24T06:24:19.577Z,14.70
2023-04-24T06:25:21.816Z,15.20
2023-04-24T06:26:27.385Z,11.00
2023-04-24T06:27:29.660Z,11.10
2023-04-24T06:28:32.767Z,24.10
2023-04-24T06:29:37.277Z,12.55
2023-04-24T06:30:39.783Z,11.80
2023-04-24T06:31:42.256Z,7.30
2023-04-24T06:32:46.347Z,11.10
2023-04-24T06:33:50.919Z,8.80
2023-04-24T06:34:54.084Z,7.50
2023-04-24T06:35:57.291Z,15.64
2023-04-24T06:37:00.665Z,9.40
2023-04-24T06:38:02.966Z,10.10
2023-04-24T06:39:05.694Z,8.40
2023-04-24T06:40:10.870Z,10.40
2023-04-24T06:41:13.598Z,10.40
2023-04-24T06:42:16.335Z,8.73
2023-04-24T06:43:20.842Z,10.50
2023-04-24T06:44:23.420Z,11.50
2023-04-24T06:45:25.570Z,6.20
2023-04-24T06:46:28.498Z,8.40
2023-04-24T06:47:30.945Z,9.09
2023-04-24T06:48:33.830Z,12.00
2023-04-24T06:49:39.554Z,7.82
2023-04-24T06:50:41.955Z,8.20
2023-04-24T06:51:44.420Z,9.60
2023-04-24T06:52:46.769Z,8.50
2023-04-24T06:53:50.209Z,5.30
2023-04-24T06:54:53.077Z,7.50
2023-04-24T06:55:56.594Z,8.73
2023-04-24T06:57:01.292Z,6.20
2023-04-24T06:58:03.813Z,5.50
2023-04-24T06:59:06.373Z,6.80
2023-04-24T07:00:10.618Z,9.60
2023-04-24T07:01:13.758Z,8.00
2023-04-24T07:02:16.002Z,5.40
2023-04-24T07:03:18.667Z,8.00
2023-04-24T07:04:21.631Z,6.90
2023-04-24T07:05:25.052Z,8.70
2023-04-24T07:06:27.712Z,6.40
2023-04-24T07:07:31.732Z,8.90
2023-04-24T07:08:34.339Z,6.80
2023-04-24T07:09:38.951Z,9.10
2023-04-24T07:10:41.993Z,5.50
2023-04-24T07:11:45.186Z,7.20
2023-04-24T07:12:47.984Z,6.90
2023-04-24T07:13:50.570Z,7.45
2023-04-24T07:14:54.158Z,7.10
2023-04-24T07:15:57.116Z,7.70
2023-04-24T07:17:00.185Z,7.00
2023-04-24T07:18:05.479Z,5.36
2023-04-24T07:19:07.082Z,1.80
2023-04-24T07:20:11.167Z,6.00
2023-04-24T07:21:13.568Z,7.40
2023-04-24T07:22:17.284Z,5.30
2023-04-24T07:23:20.162Z,5.70
2023-04-24T07:24:23.909Z,7.80
2023-04-24T07:25:27.340Z,7.40
2023-04-24T07:26:32.041Z,6.45
2023-04-24T07:27:35.249Z,9.40
2023-04-24T07:28:37.627Z,7.10
2023-04-24T07:29:40.726Z,7.30
2023-04-24T07:30:43.120Z,5.20
2023-04-24T07:31:45.595Z,6.10
2023-04-24T07:32:47.806Z,7.40
2023-04-24T07:33:50.920Z,8.30
2023-04-24T07:34:53.224Z,6.00
2023-04-24T07:35:56.876Z,6.30
2023-04-24T07:36:59.860Z,6.30
2023-04-24T07:38:07.918Z,7.09
2023-04-24T07:39:10.303Z,8.60
2023-04-24T07:40:15.317Z,7.30
2023-04-24T07:41:18.725Z,7.10
2023-04-24T07:42:21.083Z,8.80
2023-04-24T07:43:24.750Z,8.50
2023-04-24T07:44:27.091Z,7.70
2023-04-24T07:45:29.338Z,6.10
2023-04-24T07:46:32.128Z,6.40
2023-04-24T07:47:36.055Z,7.45
2023-04-24T07:48:38.398Z,10.40
2023-04-24T07:49:42.187Z,8.20
2023-04-24T07:50:45.509Z,9.70
2023-04-24T07:51:48.287Z,9.40
2023-04-24T07:52:50.682Z,7.73
2023-04-24T07:53:52.784Z,6.20
2023-04-24T07:54:58.036Z,8.50
2023-04-24T07:56:00.796Z,7.20
2023-04-24T07:57:03.698Z,10.20
2023-04-24T07:58:06.421Z,10.20
2023-04-24T07:59:10.499Z,9.50
2023-04-24T08:00:14.007Z,6.70
2023-04-24T08:01:18.592Z,7.10
2023-04-24T08:02:23.710Z,9.30
2023-04-24T08:03:26.874Z,7.60
2023-04-24T08:04:30.864Z,6.80
2023-04-24T08:05:34.088Z,8.20
2023-04-24T08:06:36.639Z,8.40
2023-04-24T08:07:39.207Z,9.70
2023-04-24T08:08:41.551Z,11.00
2023-04-24T08:09:44.573Z,8.80
2023-04-24T08:10:48.832Z,7.10
2023-04-24T08:11:51.264Z,6.70
2023-04-24T08:12:53.565Z,8.10
2023-04-24T08:13:56.742Z,8.10
2023-04-24T08:14:58.988Z,9.60
2023-04-24T08:16:01.592Z,9.10
2023-04-24T08:17:05.395Z,7.64
2023-04-24T08:18:08.099Z,9.80
2023-04-24T08:19:10.769Z,6.55
2023-04-24T08:20:14.938Z,8.09
2023-04-24T08:21:19.155Z,7.90
2023-04-24T08:22:21.326Z,8.20
2023-04-24T08:23:24.116Z,6.70
2023-04-24T08:24:28.228Z,7.09
2023-04-24T08:25:30.850Z,6.10
2023-04-24T08:26:33.256Z,7.00
2023-04-24T08:27:37.097Z,5.70
2023-04-24T08:28:39.785Z,5.90
2023-04-24T08:29:43.254Z,8.40
2023-04-24T08:30:45.915Z,9.30
2023-04-24T08:31:48.141Z,9.10
2023-04-24T08:32:50.309Z,7.30
2023-04-24T08:33:52.518Z,7.70
2023-04-24T08:34:57.123Z,5.40
2023-04-24T08:36:01.907Z,5.90
2023-04-24T08:37:04.951Z,0.70
2023-04-24T08:38:08.352Z,7.60
2023-04-24T08:39:10.716Z,6.90
2023-04-24T08:40:16.038Z,6.70
2023-04-24T08:41:19.437Z,8.40
2023-04-24T08:42:24.646Z,5.00
2023-04-24T08:43:27.500Z,8.90
2023-04-24T08:44:29.825Z,9.30
2023-04-24T08:45:33.545Z,6.50
2023-04-24T08:46:36.666Z,6.70
2023-04-24T08:47:40.694Z,5.70
2023-04-24T08:48:44.158Z,5.80
2023-04-24T08:49:49.155Z,7.30
2023-04-24T08:50:52.201Z,5.70
2023-04-24T08:51:54.486Z,7.00
2023-04-24T08:52:58.015Z,9.30
2023-04-24T08:54:01.313Z,7.10
2023-04-24T08:55:04.707Z,7.80
2023-04-24T08:56:07.935Z,7.20
2023-04-24T08:57:12.560Z,5.90
2023-04-24T08:58:17.051Z,7.10
2023-04-24T08:59:21.235Z,5.00
2023-04-24T09:00:23.893Z,6.90
2023-04-24T09:01:27.530Z,4.90
2023-04-24T09:02:31.235Z,5.10
2023-04-24T09:03:35.380Z,5.50
2023-04-24T09:04:40.062Z,6.80
2023-04-24T09:05:46.539Z,7.70
2023-04-24T09:06:55.065Z,5.40
2023-04-24T09:07:57.777Z,7.50
2023-04-24T09:09:02.233Z,5.30
2023-04-24T09:10:05.521Z,4.40
2023-04-24T09:11:08.996Z,5.00
2023-04-24T09:12:12.177Z,5.60
2023-04-24T09:13:15.259Z,6.10
2023-04-24T09:14:19.451Z,3.30
2023-04-24T09:15:21.921Z,6.50
2023-04-24T09:16:26.796Z,4.90
2023-04-24T09:17:29.389Z,5.70
2023-04-24T09:18:33.088Z,5.70
2023-04-24T09:19:35.546Z,6.90
2023-04-24T09:21:02.399Z,4.40
2023-04-24T09:22:08.913Z,4.30
2023-04-24T09:23:13.303Z,6.50
2023-04-24T09:24:22.655Z,6.50
2023-04-24T09:25:33.900Z,9.00
2023-04-24T09:26:37.041Z,6.70
2023-04-24T09:27:47.900Z,7.80
2023-04-24T09:28:51.387Z,7.10
2023-04-24T09:29:57.403Z,8.80
2023-04-24T09:31:10.724Z,4.70
2023-04-24T09:32:27.105Z,6.50
2023-04-24T09:33:30.768Z,3.10
2023-04-24T09:34:33.073Z,4.60
2023-04-24T09:35:36.812Z,6.70
2023-04-24T09:36:42.212Z,5.30
2023-04-24T09:37:46.236Z,6.20
2023-04-24T09:38:48.605Z,5.00
2023-04-24T09:40:00.885Z,5.50
2023-04-24T09:41:06.260Z,4.20
2023-04-24T09:42:09.630Z,5.20
2023-04-24T09:43:13.799Z,4.90
2023-04-24T09:44:20.671Z,5.10
2023-04-24T09:45:25.249Z,5.30
2023-04-24T09:46:34.864Z,5.50
2023-04-24T09:47:39.500Z,5.90
2023-04-24T09:48:41.795Z,5.40
2023-04-24T09:49:44.325Z,6.30
2023-04-24T09:50:47.824Z,4.10
2023-04-24T09:51:50.438Z,5.50
2023-04-24T09:53:01.731Z,5.60
2023-04-24T09:54:07.727Z,4.30
2023-04-24T09:55:17.243Z,6.70
2023-04-24T09:56:20.696Z,9.20
2023-04-24T09:57:23.074Z,5.10
2023-04-24T09:58:27.154Z,8.80
2023-04-24T09:59:30.606Z,6.50
2023-04-24T10:00:34.480Z,5.90
2023-04-24T10:01:38.686Z,7.30
2023-04-24T10:02:41.379Z,9.00
2023-04-24T10:03:45.160Z,6.36
2023-04-24T10:04:59.486Z,6.90
2023-04-24T10:06:05.651Z,6.00
2023-04-24T10:07:10.418Z,7.00
2023-04-24T10:08:14.009Z,7.40
2023-04-24T10:09:18.173Z,5.70
2023-04-24T10:10:21.486Z,6.10
2023-04-24T10:11:24.696Z,8.20
2023-04-24T10:12:29.399Z,6.10
2023-04-24T10:13:33.380Z,3.90
2023-04-24T10:14:36.514Z,8.40
2023-04-24T10:15:41.193Z,4.70
2023-04-24T10:16:46.841Z,6.30
2023-04-24T10:17:53.627Z,6.70
2023-04-24T10:18:57.864Z,7.80
2023-04-24T10:20:02.216Z,3.00
2023-04-24T10:21:05.188Z,5.70
2023-04-24T10:22:08.972Z,8.60
2023-04-24T10:23:12.533Z,6.00
2023-04-24T10:24:16.995Z,5.70
2023-04-24T10:25:22.100Z,9.30
2023-04-24T10:26:26.736Z,7.00
2023-04-24T10:27:31.214Z,6.90
2023-04-24T10:28:36.994Z,4.70
2023-04-24T10:29:40.781Z,5.50
2023-04-24T10:30:45.063Z,5.30
2023-04-24T10:31:48.328Z,5.60
2023-04-24T10:32:51.812Z,5.80
2023-04-24T10:33:55.126Z,7.20
2023-04-24T10:34:58.224Z,5.30
2023-04-24T10:36:02.072Z,4.50
2023-04-24T10:37:04.528Z,5.80
2023-04-24T10:38:11.018Z,6.40
2023-04-24T10:39:16.097Z,7.30
2023-04-24T10:40:21.556Z,7.30
2023-04-24T10:41:26.419Z,5.60
2023-04-24T10:42:29.822Z,6.00
2023-04-24T10:43:34.239Z,4.90
2023-04-24T10:44:37.452Z,4.30
2023-04-24T10:45:40.474Z,6.60
2023-04-24T10:46:48.770Z,5.20
2023-04-24T10:48:13.107Z,5.50
2023-04-24T10:49:16.172Z,7.20
2023-04-24T10:50:20.312Z,7.00
2023-04-24T10:51:24.400Z,5.70
2023-04-24T10:52:30.332Z,5.20
2023-04-24T10:53:35.584Z,6.60
2023-04-24T10:54:44.154Z,2.90
2023-04-24T10:55:52.388Z,5.30
2023-04-24T10:57:15.219Z,5.40
2023-04-24T10:58:19.984Z,7.70
2023-04-24T10:59:27.956Z,7.80
2023-04-24T11:00:30.847Z,6.90
2023-04-24T11:01:34.687Z,6.80
2023-04-24T11:02:38.798Z,7.50
2023-04-24T11:03:46.704Z,5.60
2023-04-24T11:04:52.214Z,4.80
2023-04-24T11:05:58.772Z,8.00
2023-04-24T11:07:02.897Z,6.90
2023-04-24T11:08:13.313Z,6.60
2023-04-24T11:09:17.360Z,6.00
2023-04-24T11:10:29.038Z,5.60
2023-04-24T11:11:31.740Z,4.90
2023-04-24T11:12:36.629Z,5.50
2023-04-24T11:14:01.043Z,5.90
2023-04-24T11:15:04.451Z,6.70
2023-04-24T11:16:23.315Z,5.70
2023-04-24T11:17:38.273Z,6.50
2023-04-24T11:18:44.622Z,6.50
2023-04-24T11:19:51.007Z,5.90
2023-04-24T11:20:55.705Z,5.20
2023-04-24T11:23:14.784Z,6.30
2023-04-24T11:24:29.566Z,4.70
2023-04-24T11:25:33.251Z,6.70
2023-04-24T11:26:39.993Z,7.10
2023-04-24T11:27:45.256Z,5.50
2023-04-24T11:28:48.835Z,6.70
2023-04-24T11:30:01.158Z,5.00
2023-04-24T11:31:37.498Z,6.80
2023-04-24T11:32:42.313Z,5.90
2023-04-24T11:33:44.979Z,6.10
2023-04-24T11:34:50.197Z,5.90
2023-04-24T11:35:52.961Z,7.00
2023-04-24T11:36:55.569Z,7.09
2023-04-24T11:39:05.779Z,5.80
2023-04-24T11:40:11.202Z,6.50
2023-04-24T11:41:14.437Z,6.40
2023-04-24T11:42:16.826Z,7.00
2023-04-24T11:43:20.356Z,5.90
2023-04-24T11:44:25.397Z,5.20
2023-04-24T11:45:29.803Z,6.80
2023-04-24T11:46:33.677Z,5.00
2023-04-24T11:47:37.522Z,6.10
2023-04-24T11:48:44.148Z,5.60
2023-04-24T11:49:46.776Z,7.10
2023-04-24T11:50:50.641Z,5.40
2023-04-24T11:52:00.488Z,5.60
2023-04-24T11:53:02.623Z,6.20
2023-04-24T11:54:08.220Z,7.20
2023-04-24T11:55:20.412Z,6.70
2023-04-24T11:56:26.367Z,8.30
2023-04-24T11:57:31.607Z,6.70
2023-04-24T11:58:39.138Z,7.10
2023-04-24T11:59:41.761Z,6.10
2023-04-24T12:00:46.436Z,4.50
2023-04-24T12:01:50.554Z,4.90
2023-04-24T12:03:09.153Z,5.70
2023-04-24T12:04:12.718Z,7.40
2023-04-24T12:05:26.818Z,3.40
2023-04-24T12:06:30.848Z,7.00
2023-04-24T12:07:44.454Z,6.90
2023-04-24T12:08:48.510Z,6.00
2023-04-24T12:09:56.986Z,5.90
2023-04-24T12:11:03.043Z,7.10
2023-04-24T12:12:07.359Z,4.80
2023-04-24T12:13:11.854Z,5.20
2023-04-24T12:14:15.236Z,4.40
2023-04-24T12:15:20.777Z,6.60
2023-04-24T12:16:25.541Z,5.70
2023-04-24T12:17:33.536Z,6.50
2023-04-24T12:18:45.166Z,6.70
2023-04-24T12:19:51.012Z,5.50
2023-04-24T12:20:54.179Z,5.90
2023-04-24T12:22:06.181Z,7.50
2023-04-24T12:23:09.237Z,6.30
2023-04-24T12:24:11.771Z,6.40
2023-04-24T12:25:15.845Z,8.80
2023-04-24T12:26:20.331Z,3.20
2023-04-24T12:27:23.384Z,7.40
2023-04-24T12:28:29.857Z,5.90
2023-04-24T12:29:32.453Z,6.80
2023-04-24T12:30:38.619Z,7.73
2023-04-24T12:31:41.056Z,7.70
2023-04-24T12:32:46.677Z,7.10
2023-04-24T12:33:49.264Z,4.00
2023-04-24T12:34:52.417Z,6.40
2023-04-24T12:35:56.860Z,5.20
2023-04-24T12:37:02.968Z,5.90
2023-04-24T12:38:10.919Z,7.20
2023-04-24T12:39:20.559Z,6.20
2023-04-24T12:40:26.442Z,5.50
2023-04-24T12:41:31.883Z,4.50
2023-04-24T12:42:35.463Z,3.80
2023-04-24T12:43:38.427Z,5.00
2023-04-24T12:44:41.547Z,6.50
2023-04-24T12:45:45.732Z,5.73
2023-04-24T12:46:48.172Z,4.50
2023-04-24T12:47:50.617Z,5.70
2023-04-24T12:48:54.497Z,6.70
2023-04-24T12:49:57.366Z,5.50
2023-04-24T12:51:03.106Z,7.70
2023-04-24T12:52:05.764Z,5.80
2023-04-24T12:53:10.595Z,2.64
2023-04-24T12:54:12.994Z,3.60
2023-04-24T12:55:16.235Z,5.90
2023-04-24T12:56:19.152Z,8.80
2023-04-24T12:57:22.390Z,3.70
2023-04-24T12:58:25.042Z,5.40
2023-04-24T12:59:27.537Z,5.90
2023-04-24T13:00:30.367Z,3.00
2023-04-24T13:01:33.670Z,4.18
2023-04-24T13:02:38.073Z,5.60
2023-04-24T13:03:42.109Z,4.10
2023-04-24T13:05:59.735Z,4.80
2023-04-24T13:07:02.573Z,6.00
2023-04-24T13:08:05.971Z,4.10
2023-04-24T13:09:08.402Z,6.40
2023-04-24T13:10:11.840Z,5.20
2023-04-24T13:11:15.206Z,6.50
2023-04-24T13:12:18.759Z,5.00
2023-04-24T13:13:22.611Z,4.90
2023-04-24T13:14:24.985Z,5.10
2023-04-24T13:15:27.351Z,4.10
2023-04-24T13:16:31.621Z,4.70
2023-04-24T13:17:34.066Z,4.50
2023-04-24T13:18:36.472Z,4.10
2023-04-24T13:19:41.726Z,5.20
2023-04-24T13:20:44.957Z,7.70
2023-04-24T13:21:50.379Z,5.10
2023-04-24T13:22:52.761Z,6.30
2023-04-24T13:23:56.246Z,5.30
2023-04-24T13:24:58.662Z,5.70
2023-04-24T13:26:01.742Z,5.30
2023-04-24T13:27:04.672Z,5.70
2023-04-24T13:28:07.858Z,4.10
2023-04-24T13:29:10.963Z,4.60
2023-04-24T13:30:14.550Z,5.90
2023-04-24T13:31:17.343Z,6.10
2023-04-24T13:32:20.352Z,4.50
2023-04-24T13:33:23.508Z,3.00
2023-04-24T13:34:27.536Z,4.18
2023-04-24T13:35:29.920Z,5.70
2023-04-24T13:36:33.408Z,4.70
2023-04-24T13:37:36.257Z,4.20
2023-04-24T13:38:38.565Z,5.64
2023-04-24T13:39:41.855Z,7.10
2023-04-24T13:40:44.863Z,4.70
2023-04-24T13:41:48.655Z,5.30
2023-04-24T13:42:51.729Z,6.40
2023-04-24T13:43:54.447Z,6.70
2023-04-24T13:44:57.202Z,5.45
2023-04-24T13:46:01.700Z,6.18
2023-04-24T13:47:04.504Z,4.10
2023-04-24T13:48:07.072Z,5.36
2023-04-24T13:49:10.551Z,3.60
2023-04-24T13:50:13.430Z,6.80
2023-04-24T13:51:15.797Z,6.60
2023-04-24T13:52:18.386Z,5.40
2023-04-24T13:53:20.951Z,6.30
2023-04-24T13:54:25.182Z,6.20
2023-04-24T13:55:27.661Z,7.00
2023-04-24T13:56:29.939Z,6.40
2023-04-24T13:57:33.730Z,6.10
2023-04-24T13:58:38.330Z,5.90
2023-04-24T13:59:41.852Z,3.70
2023-04-24T14:00:44.285Z,5.00
2023-04-24T14:01:47.155Z,4.90
2023-04-24T14:02:50.368Z,4.90